sensor_id;sensor_type;location;lat;lon;timestamp;P1;durP1;ratioP1;P2;durP2;ratioP2
24153;SDS011;12312;53.362;-1.518;2023-03-19T00:02:29;12.05;;;2.22;;
24153;SDS011;12312;53.362;-1.518;2023-03-19T00:05:15;20.45;;;2.70;;
24153;SDS011;12312;53.362;-1.518;2023-03-19T00:08:00;17.65;;;2.45;;
24153;SDS011;12312;53.362;-1.518;2023-03-19T00:10:44;15.07;;;2.47;;
24153;SDS011;12312;53.362;-1.518;2023-03-19T00:13:28;13.55;;;2.38;;
24153;SDS011;12312;53.362;-1.518;2023-03-19T00:16:13;13.77;;;2.20;;
24153;SDS011;12312;53.362;-1.518;2023-03-19T00:18:57;15.63;;;2.38;;
24153;SDS011;12312;53.362;-1.518;2023-03-19T00:21:42;13.40;;;2.47;;
24153;SDS011;12312;53.362;-1.518;2023-03-19T00:24:26;12.70;;;2.05;;
24153;SDS011;12312;53.362;-1.518;2023-03-19T00:27:11;22.92;;;2.58;;
24153;SDS011;12312;53.362;-1.518;2023-03-19T00:29:55;16.23;;;3.10;;
24153;SDS011;12312;53.362;-1.518;2023-03-19T00:32:39;13.90;;;2.58;;
24153;SDS011;12312;53.362;-1.518;2023-03-19T00:35:23;12.35;;;2.70;;
24153;SDS011;12312;53.362;-1.518;2023-03-19T00:38:07;17.33;;;2.45;;
24153;SDS011;12312;53.362;-1.518;2023-03-19T00:40:51;18.00;;;3.42;;
24153;SDS011;12312;53.362;-1.518;2023-03-19T00:43:36;11.82;;;3.20;;
24153;SDS011;12312;53.362;-1.518;2023-03-19T00:46:21;13.45;;;1.80;;
24153;SDS011;12312;53.362;-1.518;2023-03-19T00:49:05;13.75;;;2.13;;
24153;SDS011;12312;53.362;-1.518;2023-03-19T00:51:49;14.02;;;2.38;;
24153;SDS011;12312;53.362;-1.518;2023-03-19T00:54:34;11.40;;;1.98;;
24153;SDS011;12312;53.362;-1.518;2023-03-19T00:57:18;13.95;;;3.38;;
24153;SDS011;12312;53.362;-1.518;2023-03-19T01:00:03;16.75;;;2.22;;
24153;SDS011;12312;53.362;-1.518;2023-03-19T01:02:47;16.08;;;2.38;;
24153;SDS011;12312;53.362;-1.518;2023-03-19T01:05:33;14.40;;;2.35;;
24153;SDS011;12312;53.362;-1.518;2023-03-19T01:08:18;14.90;;;2.20;;
24153;SDS011;12312;53.362;-1.518;2023-03-19T01:11:09;10.80;;;2.08;;
24153;SDS011;12312;53.362;-1.518;2023-03-19T01:13:56;14.07;;;2.05;;
24153;SDS011;12312;53.362;-1.518;2023-03-19T01:16:40;14.30;;;3.28;;
24153;SDS011;12312;53.362;-1.518;2023-03-19T01:19:24;9.75;;;1.80;;
24153;SDS011;12312;53.362;-1.518;2023-03-19T01:22:10;18.92;;;2.78;;
24153;SDS011;12312;53.362;-1.518;2023-03-19T01:24:55;13.45;;;2.20;;
24153;SDS011;12312;53.362;-1.518;2023-03-19T01:27:39;12.80;;;2.88;;
24153;SDS011;12312;53.362;-1.518;2023-03-19T01:30:23;11.20;;;1.75;;
24153;SDS011;12312;53.362;-1.518;2023-03-19T01:33:07;12.98;;;1.95;;
24153;SDS011;12312;53.362;-1.518;2023-03-19T01:35:51;15.45;;;1.75;;
24153;SDS011;12312;53.362;-1.518;2023-03-19T01:38:35;7.97;;;2.30;;
24153;SDS011;12312;53.362;-1.518;2023-03-19T01:41:20;16.48;;;2.40;;
24153;SDS011;12312;53.362;-1.518;2023-03-19T01:47:21;12.32;;;1.98;;
24153;SDS011;12312;53.362;-1.518;2023-03-19T01:50:20;13.07;;;2.13;;
24153;SDS011;12312;53.362;-1.518;2023-03-19T01:53:10;13.57;;;1.98;;
24153;SDS011;12312;53.362;-1.518;2023-03-19T01:55:57;11.63;;;1.83;;
24153;SDS011;12312;53.362;-1.518;2023-03-19T01:58:46;14.13;;;2.17;;
24153;SDS011;12312;53.362;-1.518;2023-03-19T02:01:34;14.73;;;2.25;;
24153;SDS011;12312;53.362;-1.518;2023-03-19T02:04:26;13.77;;;2.20;;
24153;SDS011;12312;53.362;-1.518;2023-03-19T02:07:12;16.85;;;2.53;;
24153;SDS011;12312;53.362;-1.518;2023-03-19T02:09:57;11.43;;;1.92;;
24153;SDS011;12312;53.362;-1.518;2023-03-19T02:12:43;14.25;;;3.13;;
24153;SDS011;12312;53.362;-1.518;2023-03-19T02:15:27;14.05;;;2.22;;
24153;SDS011;12312;53.362;-1.518;2023-03-19T02:18:11;12.90;;;2.10;;
24153;SDS011;12312;53.362;-1.518;2023-03-19T02:23:54;12.52;;;2.10;;
24153;SDS011;12312;53.362;-1.518;2023-03-19T02:26:41;21.48;;;2.50;;
24153;SDS011;12312;53.362;-1.518;2023-03-19T02:29:28;17.08;;;3.05;;
24153;SDS011;12312;53.362;-1.518;2023-03-19T02:32:11;19.05;;;2.17;;
24153;SDS011;12312;53.362;-1.518;2023-03-19T02:34:55;15.93;;;2.35;;
24153;SDS011;12312;53.362;-1.518;2023-03-19T02:37:39;13.95;;;3.20;;
24153;SDS011;12312;53.362;-1.518;2023-03-19T02:40:25;16.05;;;3.58;;
24153;SDS011;12312;53.362;-1.518;2023-03-19T02:43:14;13.63;;;3.05;;
24153;SDS011;12312;53.362;-1.518;2023-03-19T02:45:59;12.40;;;3.25;;
24153;SDS011;12312;53.362;-1.518;2023-03-19T02:48:48;17.58;;;2.72;;
24153;SDS011;12312;53.362;-1.518;2023-03-19T02:51:31;12.00;;;2.90;;
24153;SDS011;12312;53.362;-1.518;2023-03-19T02:54:15;17.13;;;2.83;;
24153;SDS011;12312;53.362;-1.518;2023-03-19T02:56:59;15.50;;;2.65;;
24153;SDS011;12312;53.362;-1.518;2023-03-19T02:59:43;17.85;;;3.42;;
24153;SDS011;12312;53.362;-1.518;2023-03-19T03:02:28;14.65;;;3.10;;
24153;SDS011;12312;53.362;-1.518;2023-03-19T03:05:12;16.00;;;3.13;;
24153;SDS011;12312;53.362;-1.518;2023-03-19T03:07:57;13.82;;;3.17;;
24153;SDS011;12312;53.362;-1.518;2023-03-19T03:10:41;15.15;;;3.13;;
24153;SDS011;12312;53.362;-1.518;2023-03-19T03:13:25;21.70;;;3.85;;
24153;SDS011;12312;53.362;-1.518;2023-03-19T03:16:10;16.05;;;3.47;;
24153;SDS011;12312;53.362;-1.518;2023-03-19T03:18:54;18.67;;;3.53;;
24153;SDS011;12312;53.362;-1.518;2023-03-19T03:21:38;13.20;;;3.00;;
24153;SDS011;12312;53.362;-1.518;2023-03-19T03:24:22;18.92;;;3.53;;
24153;SDS011;12312;53.362;-1.518;2023-03-19T03:27:06;11.65;;;3.05;;
24153;SDS011;12312;53.362;-1.518;2023-03-19T03:29:50;17.77;;;3.80;;
24153;SDS011;12312;53.362;-1.518;2023-03-19T03:32:35;18.70;;;3.60;;
24153;SDS011;12312;53.362;-1.518;2023-03-19T03:35:19;16.17;;;3.90;;
24153;SDS011;12312;53.362;-1.518;2023-03-19T03:38:05;14.02;;;2.70;;
24153;SDS011;12312;53.362;-1.518;2023-03-19T03:43:52;15.38;;;2.85;;
24153;SDS011;12312;53.362;-1.518;2023-03-19T03:46:36;13.18;;;2.88;;
24153;SDS011;12312;53.362;-1.518;2023-03-19T03:49:20;13.85;;;2.85;;
24153;SDS011;12312;53.362;-1.518;2023-03-19T03:52:04;11.50;;;2.65;;
24153;SDS011;12312;53.362;-1.518;2023-03-19T03:54:49;9.93;;;2.90;;
24153;SDS011;12312;53.362;-1.518;2023-03-19T03:57:33;10.23;;;2.88;;
24153;SDS011;12312;53.362;-1.518;2023-03-19T04:00:17;13.27;;;2.85;;
24153;SDS011;12312;53.362;-1.518;2023-03-19T04:03:02;14.93;;;3.75;;
24153;SDS011;12312;53.362;-1.518;2023-03-19T04:05:46;14.77;;;4.00;;
24153;SDS011;12312;53.362;-1.518;2023-03-19T04:08:30;10.73;;;2.78;;
24153;SDS011;12312;53.362;-1.518;2023-03-19T04:11:14;16.98;;;3.70;;
24153;SDS011;12312;53.362;-1.518;2023-03-19T04:13:58;12.70;;;3.38;;
24153;SDS011;12312;53.362;-1.518;2023-03-19T04:16:43;8.18;;;2.58;;
24153;SDS011;12312;53.362;-1.518;2023-03-19T04:19:27;15.35;;;3.28;;
24153;SDS011;12312;53.362;-1.518;2023-03-19T04:22:13;13.75;;;3.42;;
24153;SDS011;12312;53.362;-1.518;2023-03-19T04:24:57;11.70;;;3.25;;
24153;SDS011;12312;53.362;-1.518;2023-03-19T04:27:41;15.73;;;3.25;;
24153;SDS011;12312;53.362;-1.518;2023-03-19T04:30:25;11.02;;;2.90;;
24153;SDS011;12312;53.362;-1.518;2023-03-19T04:33:10;15.10;;;3.88;;
24153;SDS011;12312;53.362;-1.518;2023-03-19T04:35:54;17.00;;;3.45;;
24153;SDS011;12312;53.362;-1.518;2023-03-19T04:38:39;14.55;;;2.72;;
24153;SDS011;12312;53.362;-1.518;2023-03-19T04:41:24;11.05;;;2.30;;
24153;SDS011;12312;53.362;-1.518;2023-03-19T04:44:08;11.65;;;3.10;;
24153;SDS011;12312;53.362;-1.518;2023-03-19T04:46:52;16.63;;;3.25;;
24153;SDS011;12312;53.362;-1.518;2023-03-19T04:49:36;9.23;;;2.50;;
24153;SDS011;12312;53.362;-1.518;2023-03-19T04:52:20;12.15;;;3.10;;
24153;SDS011;12312;53.362;-1.518;2023-03-19T04:55:05;13.73;;;2.83;;
24153;SDS011;12312;53.362;-1.518;2023-03-19T04:57:50;15.32;;;3.00;;
24153;SDS011;12312;53.362;-1.518;2023-03-19T05:00:35;11.35;;;3.30;;
24153;SDS011;12312;53.362;-1.518;2023-03-19T05:03:19;9.07;;;2.60;;
24153;SDS011;12312;53.362;-1.518;2023-03-19T05:06:04;9.82;;;2.72;;
24153;SDS011;12312;53.362;-1.518;2023-03-19T05:08:49;8.80;;;2.30;;
24153;SDS011;12312;53.362;-1.518;2023-03-19T05:11:34;8.77;;;2.70;;
24153;SDS011;12312;53.362;-1.518;2023-03-19T05:14:18;13.90;;;3.30;;
24153;SDS011;12312;53.362;-1.518;2023-03-19T05:17:03;15.05;;;3.10;;
24153;SDS011;12312;53.362;-1.518;2023-03-19T05:19:47;16.00;;;2.97;;
24153;SDS011;12312;53.362;-1.518;2023-03-19T05:22:31;13.75;;;3.22;;
24153;SDS011;12312;53.362;-1.518;2023-03-19T05:25:15;9.10;;;2.67;;
24153;SDS011;12312;53.362;-1.518;2023-03-19T05:27:59;16.35;;;2.67;;
24153;SDS011;12312;53.362;-1.518;2023-03-19T05:30:43;10.45;;;2.10;;
24153;SDS011;12312;53.362;-1.518;2023-03-19T05:33:29;11.02;;;2.35;;
24153;SDS011;12312;53.362;-1.518;2023-03-19T05:36:13;8.57;;;2.05;;
24153;SDS011;12312;53.362;-1.518;2023-03-19T05:38:57;8.65;;;3.08;;
24153;SDS011;12312;53.362;-1.518;2023-03-19T05:41:41;7.97;;;2.40;;
24153;SDS011;12312;53.362;-1.518;2023-03-19T05:44:25;12.85;;;2.50;;
24153;SDS011;12312;53.362;-1.518;2023-03-19T05:47:09;8.13;;;2.70;;
24153;SDS011;12312;53.362;-1.518;2023-03-19T05:49:54;10.75;;;2.85;;
24153;SDS011;12312;53.362;-1.518;2023-03-19T05:52:39;5.43;;;2.17;;
24153;SDS011;12312;53.362;-1.518;2023-03-19T05:55:23;12.55;;;2.85;;
24153;SDS011;12312;53.362;-1.518;2023-03-19T05:58:07;14.90;;;2.65;;
24153;SDS011;12312;53.362;-1.518;2023-03-19T06:00:53;10.65;;;2.33;;
24153;SDS011;12312;53.362;-1.518;2023-03-19T06:03:39;12.57;;;2.88;;
24153;SDS011;12312;53.362;-1.518;2023-03-19T06:06:23;16.33;;;2.78;;
24153;SDS011;12312;53.362;-1.518;2023-03-19T06:09:07;10.60;;;2.17;;
24153;SDS011;12312;53.362;-1.518;2023-03-19T06:11:51;10.18;;;2.80;;
24153;SDS011;12312;53.362;-1.518;2023-03-19T06:14:35;11.25;;;2.85;;
24153;SDS011;12312;53.362;-1.518;2023-03-19T06:17:20;13.93;;;2.92;;
24153;SDS011;12312;53.362;-1.518;2023-03-19T06:20:04;13.38;;;2.80;;
24153;SDS011;12312;53.362;-1.518;2023-03-19T06:22:48;12.23;;;2.88;;
24153;SDS011;12312;53.362;-1.518;2023-03-19T06:25:32;11.55;;;3.40;;
24153;SDS011;12312;53.362;-1.518;2023-03-19T06:28:16;12.57;;;2.97;;
24153;SDS011;12312;53.362;-1.518;2023-03-19T06:31:00;12.23;;;3.10;;
24153;SDS011;12312;53.362;-1.518;2023-03-19T06:33:44;10.52;;;2.67;;
24153;SDS011;12312;53.362;-1.518;2023-03-19T06:36:28;15.82;;;2.85;;
24153;SDS011;12312;53.362;-1.518;2023-03-19T06:39:12;13.50;;;3.40;;
24153;SDS011;12312;53.362;-1.518;2023-03-19T06:41:56;13.43;;;3.38;;
24153;SDS011;12312;53.362;-1.518;2023-03-19T06:44:40;17.33;;;3.83;;
24153;SDS011;12312;53.362;-1.518;2023-03-19T06:47:24;17.45;;;3.30;;
24153;SDS011;12312;53.362;-1.518;2023-03-19T06:50:10;11.55;;;3.20;;
24153;SDS011;12312;53.362;-1.518;2023-03-19T06:52:55;16.20;;;3.17;;
24153;SDS011;12312;53.362;-1.518;2023-03-19T06:55:39;15.48;;;3.08;;
24153;SDS011;12312;53.362;-1.518;2023-03-19T06:58:23;15.30;;;2.75;;
24153;SDS011;12312;53.362;-1.518;2023-03-19T07:01:07;11.73;;;2.40;;
24153;SDS011;12312;53.362;-1.518;2023-03-19T07:03:51;15.75;;;2.70;;
24153;SDS011;12312;53.362;-1.518;2023-03-19T07:06:35;12.38;;;2.63;;
24153;SDS011;12312;53.362;-1.518;2023-03-19T07:09:19;6.88;;;2.72;;
24153;SDS011;12312;53.362;-1.518;2023-03-19T07:12:03;12.40;;;2.55;;
24153;SDS011;12312;53.362;-1.518;2023-03-19T07:14:48;18.58;;;3.03;;
24153;SDS011;12312;53.362;-1.518;2023-03-19T07:17:32;8.32;;;3.08;;
24153;SDS011;12312;53.362;-1.518;2023-03-19T07:20:16;14.13;;;3.03;;
24153;SDS011;12312;53.362;-1.518;2023-03-19T07:23:00;19.90;;;3.25;;
24153;SDS011;12312;53.362;-1.518;2023-03-19T07:25:44;11.93;;;2.72;;
24153;SDS011;12312;53.362;-1.518;2023-03-19T07:28:30;9.63;;;2.42;;
24153;SDS011;12312;53.362;-1.518;2023-03-19T07:31:14;9.57;;;2.58;;
24153;SDS011;12312;53.362;-1.518;2023-03-19T07:33:59;13.18;;;2.75;;
24153;SDS011;12312;53.362;-1.518;2023-03-19T07:36:43;14.23;;;3.13;;
24153;SDS011;12312;53.362;-1.518;2023-03-19T07:39:27;7.32;;;2.38;;
24153;SDS011;12312;53.362;-1.518;2023-03-19T07:42:11;14.95;;;2.13;;
24153;SDS011;12312;53.362;-1.518;2023-03-19T07:44:55;12.23;;;2.50;;
24153;SDS011;12312;53.362;-1.518;2023-03-19T07:47:39;7.60;;;2.38;;
24153;SDS011;12312;53.362;-1.518;2023-03-19T07:50:23;10.27;;;1.92;;
24153;SDS011;12312;53.362;-1.518;2023-03-19T07:53:07;9.40;;;2.15;;
24153;SDS011;12312;53.362;-1.518;2023-03-19T07:55:51;6.45;;;2.28;;
24153;SDS011;12312;53.362;-1.518;2023-03-19T07:58:35;8.40;;;2.08;;
24153;SDS011;12312;53.362;-1.518;2023-03-19T08:01:19;8.88;;;2.00;;
24153;SDS011;12312;53.362;-1.518;2023-03-19T08:04:03;9.30;;;2.03;;
24153;SDS011;12312;53.362;-1.518;2023-03-19T08:06:47;5.95;;;1.95;;
24153;SDS011;12312;53.362;-1.518;2023-03-19T08:09:31;9.10;;;1.67;;
24153;SDS011;12312;53.362;-1.518;2023-03-19T08:12:15;7.95;;;1.73;;
24153;SDS011;12312;53.362;-1.518;2023-03-19T08:14:59;11.63;;;2.08;;
24153;SDS011;12312;53.362;-1.518;2023-03-19T08:17:43;11.35;;;2.10;;
24153;SDS011;12312;53.362;-1.518;2023-03-19T08:20:27;7.65;;;1.70;;
24153;SDS011;12312;53.362;-1.518;2023-03-19T08:23:11;12.40;;;2.35;;
24153;SDS011;12312;53.362;-1.518;2023-03-19T08:25:56;9.88;;;1.70;;
24153;SDS011;12312;53.362;-1.518;2023-03-19T08:28:40;10.75;;;1.40;;
24153;SDS011;12312;53.362;-1.518;2023-03-19T08:31:24;8.35;;;1.42;;
24153;SDS011;12312;53.362;-1.518;2023-03-19T08:34:09;6.25;;;1.88;;
24153;SDS011;12312;53.362;-1.518;2023-03-19T08:36:53;5.93;;;1.48;;
24153;SDS011;12312;53.362;-1.518;2023-03-19T08:39:37;10.32;;;1.70;;
24153;SDS011;12312;53.362;-1.518;2023-03-19T08:42:21;9.32;;;1.67;;
24153;SDS011;12312;53.362;-1.518;2023-03-19T08:45:05;7.05;;;1.58;;
24153;SDS011;12312;53.362;-1.518;2023-03-19T08:47:50;8.48;;;2.33;;
24153;SDS011;12312;53.362;-1.518;2023-03-19T08:50:34;6.88;;;1.70;;
24153;SDS011;12312;53.362;-1.518;2023-03-19T08:53:18;8.40;;;1.63;;
24153;SDS011;12312;53.362;-1.518;2023-03-19T08:56:04;6.80;;;1.23;;
24153;SDS011;12312;53.362;-1.518;2023-03-19T08:58:54;7.80;;;1.63;;
24153;SDS011;12312;53.362;-1.518;2023-03-19T09:01:38;6.32;;;1.33;;
24153;SDS011;12312;53.362;-1.518;2023-03-19T09:04:23;6.97;;;1.50;;
24153;SDS011;12312;53.362;-1.518;2023-03-19T09:07:06;6.03;;;1.50;;
24153;SDS011;12312;53.362;-1.518;2023-03-19T09:09:51;7.68;;;1.17;;
24153;SDS011;12312;53.362;-1.518;2023-03-19T09:12:35;5.10;;;1.35;;
24153;SDS011;12312;53.362;-1.518;2023-03-19T09:15:19;5.65;;;1.23;;
24153;SDS011;12312;53.362;-1.518;2023-03-19T09:18:02;7.53;;;1.70;;
24153;SDS011;12312;53.362;-1.518;2023-03-19T09:20:46;5.25;;;1.42;;
24153;SDS011;12312;53.362;-1.518;2023-03-19T09:23:30;6.82;;;1.30;;
24153;SDS011;12312;53.362;-1.518;2023-03-19T09:26:14;7.32;;;1.85;;
24153;SDS011;12312;53.362;-1.518;2023-03-19T09:28:59;8.40;;;1.45;;
24153;SDS011;12312;53.362;-1.518;2023-03-19T09:31:44;8.55;;;1.40;;
24153;SDS011;12312;53.362;-1.518;2023-03-19T09:34:29;4.57;;;1.35;;
24153;SDS011;12312;53.362;-1.518;2023-03-19T09:37:12;4.97;;;1.38;;
24153;SDS011;12312;53.362;-1.518;2023-03-19T09:39:56;4.35;;;1.05;;
24153;SDS011;12312;53.362;-1.518;2023-03-19T09:42:44;8.15;;;1.40;;
24153;SDS011;12312;53.362;-1.518;2023-03-19T09:45:32;7.75;;;1.60;;
24153;SDS011;12312;53.362;-1.518;2023-03-19T09:48:28;5.70;;;2.15;;
24153;SDS011;12312;53.362;-1.518;2023-03-19T09:51:27;5.25;;;1.40;;
24153;SDS011;12312;53.362;-1.518;2023-03-19T09:54:32;8.50;;;1.75;;
24153;SDS011;12312;53.362;-1.518;2023-03-19T09:57:21;7.20;;;1.52;;
24153;SDS011;12312;53.362;-1.518;2023-03-19T10:06:56;9.43;;;1.83;;
24153;SDS011;12312;53.362;-1.518;2023-03-19T10:15:26;10.82;;;1.38;;
24153;SDS011;12312;53.362;-1.518;2023-03-19T10:18:18;5.65;;;1.60;;
24153;SDS011;12312;53.362;-1.518;2023-03-19T10:26:47;5.63;;;1.40;;
24153;SDS011;12312;53.362;-1.518;2023-03-19T10:29:33;5.55;;;1.20;;
24153;SDS011;12312;53.362;-1.518;2023-03-19T10:35:36;7.32;;;1.50;;
24153;SDS011;12312;53.362;-1.518;2023-03-19T10:38:26;7.23;;;0.97;;
24153;SDS011;12312;53.362;-1.518;2023-03-19T10:43:59;6.43;;;1.25;;
24153;SDS011;12312;53.362;-1.518;2023-03-19T10:46:48;5.47;;;1.17;;
24153;SDS011;12312;53.362;-1.518;2023-03-19T10:49:33;7.68;;;1.20;;
24153;SDS011;12312;53.362;-1.518;2023-03-19T10:52:23;7.07;;;1.00;;
24153;SDS011;12312;53.362;-1.518;2023-03-19T10:55:12;3.72;;;1.67;;
24153;SDS011;12312;53.362;-1.518;2023-03-19T10:58:04;5.78;;;1.25;;
24153;SDS011;12312;53.362;-1.518;2023-03-19T11:00:54;8.18;;;1.10;;
24153;SDS011;12312;53.362;-1.518;2023-03-19T11:03:59;9.85;;;1.33;;
24153;SDS011;12312;53.362;-1.518;2023-03-19T11:06:51;8.32;;;1.20;;
24153;SDS011;12312;53.362;-1.518;2023-03-19T11:09:38;7.15;;;1.08;;
24153;SDS011;12312;53.362;-1.518;2023-03-19T11:12:31;9.05;;;1.40;;
24153;SDS011;12312;53.362;-1.518;2023-03-19T11:15:21;4.78;;;1.63;;
24153;SDS011;12312;53.362;-1.518;2023-03-19T11:18:18;2.67;;;1.05;;
24153;SDS011;12312;53.362;-1.518;2023-03-19T11:21:28;5.00;;;1.30;;
24153;SDS011;12312;53.362;-1.518;2023-03-19T11:24:19;6.82;;;2.08;;
24153;SDS011;12312;53.362;-1.518;2023-03-19T11:27:04;8.27;;;1.30;;
24153;SDS011;12312;53.362;-1.518;2023-03-19T11:29:48;9.38;;;1.58;;
24153;SDS011;12312;53.362;-1.518;2023-03-19T11:35:50;5.47;;;0.80;;
24153;SDS011;12312;53.362;-1.518;2023-03-19T11:47:42;7.35;;;1.02;;
24153;SDS011;12312;53.362;-1.518;2023-03-19T12:02:20;10.07;;;1.42;;
24153;SDS011;12312;53.362;-1.518;2023-03-19T12:05:15;5.97;;;1.05;;
24153;SDS011;12312;53.362;-1.518;2023-03-19T12:08:11;4.03;;;0.88;;
24153;SDS011;12312;53.362;-1.518;2023-03-19T12:14:06;6.45;;;1.30;;
24153;SDS011;12312;53.362;-1.518;2023-03-19T12:23:05;5.80;;;0.90;;
24153;SDS011;12312;53.362;-1.518;2023-03-19T12:26:00;5.10;;;0.90;;
24153;SDS011;12312;53.362;-1.518;2023-03-19T12:35:15;8.70;;;1.67;;
24153;SDS011;12312;53.362;-1.518;2023-03-19T12:41:10;9.60;;;1.45;;
24153;SDS011;12312;53.362;-1.518;2023-03-19T12:44:03;7.22;;;1.20;;
24153;SDS011;12312;53.362;-1.518;2023-03-19T12:46:50;9.95;;;1.40;;
24153;SDS011;12312;53.362;-1.518;2023-03-19T12:49:47;5.97;;;1.42;;
24153;SDS011;12312;53.362;-1.518;2023-03-19T12:52:36;5.53;;;1.27;;
24153;SDS011;12312;53.362;-1.518;2023-03-19T12:58:45;9.35;;;1.45;;
24153;SDS011;12312;53.362;-1.518;2023-03-19T13:01:52;9.77;;;1.42;;
24153;SDS011;12312;53.362;-1.518;2023-03-19T13:04:40;8.75;;;1.40;;
24153;SDS011;12312;53.362;-1.518;2023-03-19T13:10:48;6.50;;;1.25;;
24153;SDS011;12312;53.362;-1.518;2023-03-19T13:13:47;7.70;;;1.50;;
24153;SDS011;12312;53.362;-1.518;2023-03-19T13:16:41;10.20;;;1.55;;
24153;SDS011;12312;53.362;-1.518;2023-03-19T13:19:45;4.93;;;1.30;;
24153;SDS011;12312;53.362;-1.518;2023-03-19T13:22:34;6.28;;;1.23;;
24153;SDS011;12312;53.362;-1.518;2023-03-19T13:25:23;6.93;;;1.17;;
24153;SDS011;12312;53.362;-1.518;2023-03-19T13:28:33;7.57;;;1.33;;
24153;SDS011;12312;53.362;-1.518;2023-03-19T13:31:20;3.47;;;0.88;;
24153;SDS011;12312;53.362;-1.518;2023-03-19T13:37:00;4.20;;;0.93;;
24153;SDS011;12312;53.362;-1.518;2023-03-19T13:39:54;5.35;;;1.20;;
24153;SDS011;12312;53.362;-1.518;2023-03-19T13:42:39;4.68;;;1.00;;
24153;SDS011;12312;53.362;-1.518;2023-03-19T13:45:36;5.60;;;1.30;;
24153;SDS011;12312;53.362;-1.518;2023-03-19T13:48:22;5.15;;;0.98;;
24153;SDS011;12312;53.362;-1.518;2023-03-19T13:56:55;8.63;;;1.70;;
24153;SDS011;12312;53.362;-1.518;2023-03-19T13:59:48;5.55;;;1.27;;
24153;SDS011;12312;53.362;-1.518;2023-03-19T14:05:18;8.50;;;1.25;;
24153;SDS011;12312;53.362;-1.518;2023-03-19T14:08:12;9.05;;;1.35;;
24153;SDS011;12312;53.362;-1.518;2023-03-19T14:11:02;6.57;;;1.35;;
24153;SDS011;12312;53.362;-1.518;2023-03-19T14:13:48;8.75;;;1.60;;
24153;SDS011;12312;53.362;-1.518;2023-03-19T14:16:40;5.75;;;1.10;;
24153;SDS011;12312;53.362;-1.518;2023-03-19T14:19:27;11.82;;;1.70;;
24153;SDS011;12312;53.362;-1.518;2023-03-19T14:25:14;7.93;;;1.42;;
24153;SDS011;12312;53.362;-1.518;2023-03-19T14:28:08;6.03;;;1.38;;
24153;SDS011;12312;53.362;-1.518;2023-03-19T14:30:54;7.85;;;1.20;;
24153;SDS011;12312;53.362;-1.518;2023-03-19T14:33:43;9.80;;;1.52;;
24153;SDS011;12312;53.362;-1.518;2023-03-19T14:36:35;9.32;;;1.92;;
24153;SDS011;12312;53.362;-1.518;2023-03-19T14:39:25;7.03;;;1.60;;
24153;SDS011;12312;53.362;-1.518;2023-03-19T14:56:30;7.50;;;1.52;;
24153;SDS011;12312;53.362;-1.518;2023-03-19T14:59:17;6.97;;;1.17;;
24153;SDS011;12312;53.362;-1.518;2023-03-19T15:02:03;10.30;;;1.40;;
24153;SDS011;12312;53.362;-1.518;2023-03-19T15:04:49;8.18;;;1.75;;
24153;SDS011;12312;53.362;-1.518;2023-03-19T15:07:38;6.80;;;1.17;;
24153;SDS011;12312;53.362;-1.518;2023-03-19T15:10:26;5.68;;;1.30;;
24153;SDS011;12312;53.362;-1.518;2023-03-19T15:17:40;9.65;;;1.77;;
24153;SDS011;12312;53.362;-1.518;2023-03-19T15:19:59;11.90;;;1.80;;
24153;SDS011;12312;53.362;-1.518;2023-03-19T15:25:44;11.00;;;1.90;;
24153;SDS011;12312;53.362;-1.518;2023-03-19T15:28:47;7.00;;;1.90;;
24153;SDS011;12312;53.362;-1.518;2023-03-19T15:31:46;9.95;;;2.42;;
24153;SDS011;12312;53.362;-1.518;2023-03-19T15:34:31;10.40;;;1.70;;
24153;SDS011;12312;53.362;-1.518;2023-03-19T15:37:15;12.50;;;2.08;;
24153;SDS011;12312;53.362;-1.518;2023-03-19T15:39:59;8.15;;;2.10;;
24153;SDS011;12312;53.362;-1.518;2023-03-19T15:42:50;11.60;;;2.90;;
24153;SDS011;12312;53.362;-1.518;2023-03-19T15:45:35;14.00;;;2.55;;
24153;SDS011;12312;53.362;-1.518;2023-03-19T15:48:22;14.20;;;1.90;;
24153;SDS011;12312;53.362;-1.518;2023-03-19T15:51:10;12.00;;;2.30;;
24153;SDS011;12312;53.362;-1.518;2023-03-19T15:53:58;12.88;;;2.92;;
24153;SDS011;12312;53.362;-1.518;2023-03-19T15:56:44;10.48;;;2.28;;
24153;SDS011;12312;53.362;-1.518;2023-03-19T15:59:29;10.13;;;2.40;;
24153;SDS011;12312;53.362;-1.518;2023-03-19T16:02:19;6.97;;;1.92;;
24153;SDS011;12312;53.362;-1.518;2023-03-19T16:08:25;13.75;;;1.75;;
24153;SDS011;12312;53.362;-1.518;2023-03-19T16:11:29;7.35;;;2.40;;
24153;SDS011;12312;53.362;-1.518;2023-03-19T16:14:21;10.68;;;2.80;;
24153;SDS011;12312;53.362;-1.518;2023-03-19T16:17:14;12.63;;;2.80;;
24153;SDS011;12312;53.362;-1.518;2023-03-19T16:20:01;6.65;;;2.20;;
24153;SDS011;12312;53.362;-1.518;2023-03-19T16:22:51;12.02;;;3.03;;
24153;SDS011;12312;53.362;-1.518;2023-03-19T16:25:38;11.82;;;3.00;;
24153;SDS011;12312;53.362;-1.518;2023-03-19T16:28:23;9.57;;;1.80;;
24153;SDS011;12312;53.362;-1.518;2023-03-19T16:31:22;9.68;;;1.88;;
24153;SDS011;12312;53.362;-1.518;2023-03-19T16:43:06;8.43;;;2.30;;
24153;SDS011;12312;53.362;-1.518;2023-03-19T16:46:05;14.40;;;3.30;;
24153;SDS011;12312;53.362;-1.518;2023-03-19T16:48:53;13.80;;;2.92;;
24153;SDS011;12312;53.362;-1.518;2023-03-19T16:51:38;12.57;;;4.30;;
24153;SDS011;12312;53.362;-1.518;2023-03-19T16:54:22;10.25;;;2.50;;
24153;SDS011;12312;53.362;-1.518;2023-03-19T16:57:10;12.00;;;2.50;;
24153;SDS011;12312;53.362;-1.518;2023-03-19T16:59:56;7.97;;;2.22;;
24153;SDS011;12312;53.362;-1.518;2023-03-19T17:02:41;13.23;;;3.55;;
24153;SDS011;12312;53.362;-1.518;2023-03-19T17:05:25;14.27;;;3.45;;
24153;SDS011;12312;53.362;-1.518;2023-03-19T17:08:10;12.60;;;3.72;;
24153;SDS011;12312;53.362;-1.518;2023-03-19T17:10:54;11.68;;;5.05;;
24153;SDS011;12312;53.362;-1.518;2023-03-19T17:13:39;13.82;;;5.93;;
24153;SDS011;12312;53.362;-1.518;2023-03-19T17:16:25;13.80;;;5.25;;
24153;SDS011;12312;53.362;-1.518;2023-03-19T17:19:11;17.65;;;4.72;;
24153;SDS011;12312;53.362;-1.518;2023-03-19T17:22:07;9.68;;;3.30;;
24153;SDS011;12312;53.362;-1.518;2023-03-19T17:24:53;12.95;;;2.88;;
24153;SDS011;12312;53.362;-1.518;2023-03-19T17:27:39;10.75;;;3.63;;
24153;SDS011;12312;53.362;-1.518;2023-03-19T17:30:23;13.43;;;3.65;;
24153;SDS011;12312;53.362;-1.518;2023-03-19T17:33:13;7.88;;;2.17;;
24153;SDS011;12312;53.362;-1.518;2023-03-19T17:36:06;9.68;;;2.33;;
24153;SDS011;12312;53.362;-1.518;2023-03-19T17:38:52;11.50;;;2.67;;
24153;SDS011;12312;53.362;-1.518;2023-03-19T17:41:36;18.15;;;3.20;;
24153;SDS011;12312;53.362;-1.518;2023-03-19T17:44:20;12.50;;;3.50;;
24153;SDS011;12312;53.362;-1.518;2023-03-19T17:47:04;16.17;;;4.20;;
24153;SDS011;12312;53.362;-1.518;2023-03-19T17:49:48;8.48;;;2.97;;
24153;SDS011;12312;53.362;-1.518;2023-03-19T17:52:32;11.48;;;2.50;;
24153;SDS011;12312;53.362;-1.518;2023-03-19T17:55:22;12.82;;;2.50;;
24153;SDS011;12312;53.362;-1.518;2023-03-19T17:58:12;9.15;;;1.83;;
24153;SDS011;12312;53.362;-1.518;2023-03-19T18:00:58;11.55;;;2.65;;
24153;SDS011;12312;53.362;-1.518;2023-03-19T18:03:43;9.48;;;2.20;;
24153;SDS011;12312;53.362;-1.518;2023-03-19T18:06:32;5.53;;;2.13;;
24153;SDS011;12312;53.362;-1.518;2023-03-19T18:09:22;7.85;;;2.42;;
24153;SDS011;12312;53.362;-1.518;2023-03-19T18:12:08;16.42;;;4.78;;
24153;SDS011;12312;53.362;-1.518;2023-03-19T18:14:52;11.85;;;3.33;;
24153;SDS011;12312;53.362;-1.518;2023-03-19T18:17:36;7.57;;;1.98;;
24153;SDS011;12312;53.362;-1.518;2023-03-19T18:20:23;10.68;;;2.25;;
24153;SDS011;12312;53.362;-1.518;2023-03-19T18:23:10;9.57;;;2.25;;
24153;SDS011;12312;53.362;-1.518;2023-03-19T18:25:56;12.25;;;2.42;;
24153;SDS011;12312;53.362;-1.518;2023-03-19T18:28:40;15.80;;;4.30;;
24153;SDS011;12312;53.362;-1.518;2023-03-19T18:31:24;16.55;;;5.07;;